Time;durP1;ratioP1;P1;durP2;ratioP2;P2;SDS_P1;SDS_P2;PMS_P1;PMS_P2;Temp;Humidity;BMP_temperature;BMP_pressure;BME280_temperature;BME280_humidity;BME280_pressure;Samples;Min_cycle;Max_cycle;Signal;HPM_P1;HPM_P2
2024/01/08 00:00:54;;;;;;;12.80;5.80;;;;;;;-7.67;46.52;100903.14;105435;1254;60868;-51
2024/01/08 00:03:22;;;;;;;15.80;6.40;;;;;;;-7.69;46.70;100909.61;105402;1257;60482;-50
2024/01/08 00:05:49;;;;;;;14.10;6.30;;;;;;;-7.70;46.67;100907.39;105857;1253;73766;-53
2024/01/08 00:08:17;;;;;;;10.20;4.70;;;;;;;-7.72;46.63;100914.70;105393;1253;70605;-52
2024/01/08 00:10:45;;;;;;;11.00;4.00;;;;;;;-7.72;47.10;100912.49;105421;1253;72488;-52
2024/01/08 00:13:13;;;;;;;11.00;4.80;;;;;;;-7.74;47.12;100913.69;105329;1258;60473;-53
2024/01/08 00:15:40;;;;;;;11.00;4.20;;;;;;;-7.81;46.76;100909.22;105442;1253;60997;-52
2024/01/08 00:18:08;;;;;;;10.80;4.80;;;;;;;-7.86;46.65;100913.30;105385;1253;72596;-53
2024/01/08 00:20:36;;;;;;;15.60;5.90;;;;;;;-7.89;47.10;100909.37;105553;1258;69294;-52
2024/01/08 00:23:03;;;;;;;12.70;4.90;;;;;;;-7.86;47.41;100917.38;105257;1253;73113;-53
2024/01/08 00:25:31;;;;;;;11.50;3.10;;;;;;;-7.85;47.41;100914.66;106145;1256;60566;-51
2024/01/08 00:28:00;;;;;;;12.90;4.60;;;;;;;-7.88;47.00;100916.02;105617;1259;62203;-51
2024/01/08 00:30:27;;;;;;;13.00;4.60;;;;;;;-7.89;46.82;100919.91;105370;1253;72872;-51
2024/01/08 00:32:55;;;;;;;13.50;5.90;;;;;;;-7.94;46.62;100916.84;105387;1253;70305;-52
2024/01/08 00:35:23;;;;;;;14.20;5.70;;;;;;;-7.98;46.24;100919.88;105451;1253;72768;-51
2024/01/08 00:37:50;;;;;;;16.60;5.70;;;;;;;-8.00;46.74;100914.60;105874;1259;60447;-52
2024/01/08 00:40:19;;;;;;;13.70;5.90;;;;;;;-7.98;46.59;100919.20;105355;1258;60390;-50
2024/01/08 00:42:46;;;;;;;11.80;5.10;;;;;;;-7.97;46.86;100919.87;106078;1254;72324;-51
2024/01/08 00:45:14;;;;;;;11.70;4.50;;;;;;;-7.98;46.41;100923.13;105366;1253;68807;-52
2024/01/08 00:47:41;;;;;;;13.30;6.40;;;;;;;-8.07;46.08;100915.42;105301;1253;72473;-52
2024/01/08 00:50:13;;;;;;;14.90;5.70;;;;;;;-8.17;46.27;100918.25;105501;1253;60790;-52
2024/01/08 00:52:41;;;;;;;14.10;6.90;;;;;;;-8.25;46.22;100918.73;105450;1259;60349;-50
2024/01/08 00:55:11;;;;;;;12.30;4.50;;;;;;;-8.28;46.50;100919.89;105423;1253;74359;-51
2024/01/08 00:57:39;;;;;;;16.20;6.70;;;;;;;-8.30;46.91;100918.87;105471;1258;70512;-51
2024/01/08 01:00:08;;;;;;;16.40;6.30;;;;;;;-8.32;46.18;100913.73;105402;1253;73205;-49
2024/01/08 01:02:36;;;;;;;17.10;6.90;;;;;;;-8.37;46.10;100912.01;105406;1258;60402;-49
2024/01/08 01:05:04;;;;;;;10.50;3.40;;;;;;;-8.43;46.20;100914.39;105560;1253;60659;-54
2024/01/08 01:07:33;;;;;;;18.50;6.20;;;;;;;-8.43;46.42;100914.39;105621;1253;72966;-55
2024/01/08 01:10:01;;;;;;;15.00;6.30;;;;;;;-8.45;46.33;100911.31;105675;1259;68851;-52
2024/01/08 01:12:29;;;;;;;12.10;4.90;;;;;;;-8.45;46.22;100913.88;105837;1253;72432;-51
2024/01/08 01:14:56;;;;;;;17.30;6.50;;;;;;;-8.45;46.41;100906.55;105362;1259;61329;-51
2024/01/08 01:17:24;;;;;;;14.60;4.40;;;;;;;-8.47;46.68;100909.95;105457;1259;60499;-51
2024/01/08 01:19:52;;;;;;;17.50;6.40;;;;;;;-8.48;46.88;100907.73;105388;1253;73756;-51
2024/01/08 01:22:19;;;;;;;20.90;9.50;;;;;;;-8.52;46.38;100907.70;105962;1259;70308;-50
2024/01/08 01:24:47;;;;;;;14.10;6.90;;;;;;;-8.57;46.04;100908.02;105381;1257;72853;-50
2024/01/08 01:27:15;;;;;;;11.90;5.00;;;;;;;-8.56;46.25;100909.38;105412;1253;60435;-50
2024/01/08 01:29:43;;;;;;;12.00;5.20;;;;;;;-8.58;46.16;100913.62;105457;1258;60620;-50
2024/01/08 01:32:10;;;;;;;11.50;4.30;;;;;;;-8.62;45.83;100915.80;105395;1258;72338;-51
2024/01/08 01:34:39;;;;;;;14.40;6.20;;;;;;;-8.65;46.26;100915.77;105415;1257;69174;-52
2024/01/08 01:37:06;;;;;;;13.90;5.40;;;;;;;-8.67;46.08;100914.23;105477;1253;72648;-51
2024/01/08 01:39:34;;;;;;;13.20;6.00;;;;;;;-8.63;46.38;100920.55;105532;1259;60824;-51
2024/01/08 01:42:01;;;;;;;12.40;5.40;;;;;;;-8.61;45.97;100912.92;105381;1258;60438;-51
2024/01/08 01:44:29;;;;;;;15.90;7.30;;;;;;;-8.65;45.59;100915.27;105492;1253;72618;-50
2024/01/08 01:46:57;;;;;;;16.70;6.80;;;;;;;-8.73;45.79;100916.05;105365;1258;69034;-51
2024/01/08 01:49:25;;;;;;;13.80;5.90;;;;;;;-8.80;45.81;100915.84;105742;1253;72496;-50
2024/01/08 01:51:52;;;;;;;8.30;4.20;;;;;;;-8.82;45.85;100915.98;105878;1258;60452;-49
2024/01/08 01:54:23;;;;;;;18.90;7.50;;;;;;;-8.83;46.06;100916.33;105737;1253;60514;-52
2024/01/08 01:57:00;;;;;;;13.20;4.90;;;;;;;-8.82;45.90;100916.84;105805;1258;73895;-52
2024/01/08 01:59:28;;;;;;;25.90;7.30;;;;;;;-8.80;45.69;100916.67;105654;1253;70511;-52
2024/01/08 02:01:56;;;;;;;16.20;7.30;;;;;;;-8.83;45.98;100921.59;105452;1253;71664;-51
2024/01/08 02:04:25;;;;;;;12.90;5.60;;;;;;;-8.84;45.85;100926.02;105350;1256;60734;-49
2024/01/08 02:06:54;;;;;;;17.60;5.50;;;;;;;-8.79;46.14;100925.54;105877;1257;60401;-49
2024/01/08 02:09:21;;;;;;;18.20;7.90;;;;;;;-8.71;45.98;100929.17;105495;1253;72600;-52
2024/01/08 02:11:49;;;;;;;12.80;7.20;;;;;;;-8.73;45.54;100922.00;105980;1253;70406;-50
2024/01/08 02:14:17;;;;;;;14.00;6.30;;;;;;;-8.80;45.27;100929.27;105422;1253;72742;-52
2024/01/08 02:16:44;;;;;;;18.30;7.10;;;;;;;-8.90;45.52;100930.04;106131;1253;60848;-51
2024/01/08 02:19:12;;;;;;;14.90;5.70;;;;;;;-9.00;45.57;100936.92;105441;1259;60483;-54
2024/01/08 02:21:40;;;;;;;11.40;4.50;;;;;;;-9.00;45.69;100938.63;105507;1253;74399;-50
2024/01/08 02:24:07;;;;;;;17.30;6.80;;;;;;;-8.96;45.73;100939.52;105392;1258;69004;-51
2024/01/08 02:26:36;;;;;;;15.50;6.50;;;;;;;-8.93;45.48;100943.45;105481;1253;71393;-51
2024/01/08 02:29:04;;;;;;;12.90;4.30;;;;;;;-8.97;45.59;100941.20;105450;1258;60420;-52
2024/01/08 02:31:32;;;;;;;16.50;6.80;;;;;;;-9.01;45.86;100942.18;105582;1253;60582;-51
2024/01/08 02:34:00;;;;;;;15.00;4.80;;;;;;;-9.05;45.75;100943.67;105476;1255;74384;-51
2024/01/08 02:36:28;;;;;;;13.80;5.40;;;;;;;-9.05;45.91;100943.18;105468;1258;68991;-50
2024/01/08 02:38:55;;;;;;;13.40;5.30;;;;;;;-9.03;46.00;100945.90;105544;1254;72701;-51
2024/01/08 02:41:23;;;;;;;12.90;6.00;;;;;;;-9.04;45.71;100941.81;105847;1253;60973;-51
2024/01/08 02:43:50;;;;;;;14.50;7.50;;;;;;;-9.05;45.62;100943.50;105461;1259;60481;-52
2024/01/08 02:46:18;;;;;;;18.70;7.30;;;;;;;-9.11;45.66;100941.75;105983;1254;73846;-52
2024/01/08 02:48:46;;;;;;;11.70;5.60;;;;;;;-9.13;45.62;100943.26;105407;1253;70289;-51
2024/01/08 02:51:14;;;;;;;14.30;5.80;;;;;;;-9.18;45.97;100943.73;105362;1253;72451;-51
2024/01/08 02:53:42;;;;;;;11.50;5.40;;;;;;;-9.19;45.96;100941.67;105504;1253;61444;-51
2024/01/08 02:56:22;;;;;;;13.50;6.10;;;;;;;-9.22;45.93;100946.39;105336;1258;60388;-51
2024/01/08 02:58:50;;;;;;;13.70;4.60;;;;;;;-9.24;45.86;100943.32;105789;1259;73780;-51
2024/01/08 03:01:18;;;;;;;13.30;3.90;;;;;;;-9.27;45.94;100941.77;105457;1259;68182;-51
2024/01/08 03:03:45;;;;;;;20.40;7.70;;;;;;;-9.25;46.42;100948.91;105427;1254;72443;-51
2024/01/08 03:06:13;;;;;;;15.70;6.60;;;;;;;-9.23;46.45;100950.48;106094;1253;60859;-52
2024/01/08 03:08:41;;;;;;;18.10;7.90;;;;;;;-9.27;45.60;100944.82;105304;1258;60448;-51
2024/01/08 03:11:08;;;;;;;10.90;6.40;;;;;;;-9.33;45.48;100951.04;105531;1253;72192;-51
2024/01/08 03:13:36;;;;;;;17.60;6.80;;;;;;;-9.32;45.79;100952.92;105381;1253;68759;-51
2024/01/08 03:16:05;;;;;;;15.50;6.60;;;;;;;-9.23;46.06;100954.55;105386;1253;72668;-51
2024/01/08 03:18:32;;;;;;;18.00;7.50;;;;;;;-9.23;45.67;100952.86;106441;1253;60852;-55
2024/01/08 03:21:04;;;;;;;17.30;8.10;;;;;;;-9.28;45.59;100958.58;105344;1257;60444;-54
2024/01/08 03:23:31;;;;;;;16.00;6.90;;;;;;;-9.37;45.30;100954.58;105667;1259;73855;-52
2024/01/08 03:25:59;;;;;;;21.50;6.90;;;;;;;-9.40;45.71;100961.69;105408;1259;69498;-51
2024/01/08 03:28:27;;;;;;;10.50;4.80;;;;;;;-9.43;45.64;100964.86;105364;1254;72734;-53
2024/01/08 03:30:55;;;;;;;14.20;5.20;;;;;;;-9.41;45.62;100964.39;105700;1253;60602;-53
2024/01/08 03:33:22;;;;;;;15.30;6.60;;;;;;;-9.40;45.95;100962.36;105354;1258;60540;-54
2024/01/08 03:35:50;;;;;;;18.10;8.10;;;;;;;-9.37;45.73;100964.61;105926;1253;72126;-53
2024/01/08 03:38:18;;;;;;;14.60;6.70;;;;;;;-9.40;45.36;100961.51;105324;1257;71208;-55
2024/01/08 03:40:46;;;;;;;12.30;5.40;;;;;;;-9.37;45.70;100970.20;105351;1255;72396;-51
2024/01/08 03:43:13;;;;;;;14.80;7.40;;;;;;;-9.34;45.32;100965.64;105415;1257;60815;-51
2024/01/08 03:45:41;;;;;;;10.70;5.30;;;;;;;-9.42;45.12;100963.52;105408;1253;60645;-55
2024/01/08 03:48:08;;;;;;;14.00;6.60;;;;;;;-9.48;45.08;100970.08;105336;1258;73793;-53
2024/01/08 03:50:36;;;;;;;12.30;5.20;;;;;;;-9.52;45.21;100973.60;105165;1253;70776;-51
2024/01/08 03:53:04;;;;;;;13.50;5.60;;;;;;;-9.48;45.05;100982.64;105453;1253;72498;-51
2024/01/08 03:55:33;;;;;;;13.80;3.70;;;;;;;-9.44;45.34;100984.73;105399;1254;61369;-51
2024/01/08 03:58:01;;;;;;;17.20;6.00;;;;;;;-9.38;45.45;100985.66;105742;1254;60551;-52
2024/01/08 04:00:29;;;;;;;10.00;4.50;;;;;;;-9.32;45.42;100981.98;105737;1254;73948;-52
2024/01/08 04:02:57;;;;;;;11.90;5.00;;;;;;;-9.25;45.23;100988.17;105359;1254;70033;-50
2024/01/08 04:05:24;;;;;;;14.50;6.00;;;;;;;-9.26;44.91;100984.09;105367;1259;70661;-52
2024/01/08 04:07:52;;;;;;;12.00;5.40;;;;;;;-9.23;45.18;100988.89;105836;1253;61367;-50
2024/01/08 04:10:20;;;;;;;12.20;5.40;;;;;;;-9.21;45.33;100988.39;105387;1260;60772;-50
2024/01/08 04:12:47;;;;;;;12.80;5.00;;;;;;;-9.19;45.11;100988.92;105409;1253;73750;-50
2024/01/08 04:15:15;;;;;;;12.90;5.00;;;;;;;-9.25;44.77;100990.21;105389;1258;69930;-51
2024/01/08 04:17:42;;;;;;;15.80;5.10;;;;;;;-9.33;44.92;100992.52;105440;1254;72664;-50
2024/01/08 04:20:11;;;;;;;12.20;6.50;;;;;;;-9.34;44.98;100994.36;105418;1258;60436;-50
2024/01/08 04:22:43;;;;;;;13.20;6.60;;;;;;;-9.34;45.23;100998.27;105420;1253;60184;-50
2024/01/08 04:25:11;;;;;;;16.20;6.60;;;;;;;-9.36;45.49;100989.92;106102;1253;73836;-50
2024/01/08 04:27:39;;;;;;;7.70;3.40;;;;;;;-9.36;45.59;100996.21;105380;1253;70301;-51
2024/01/08 04:30:07;;;;;;;14.30;7.00;;;;;;;-9.36;45.56;100998.24;105304;1259;72334;-50
2024/01/08 04:32:35;;;;;;;8.30;4.60;;;;;;;-9.33;46.02;100997.25;105555;1259;60855;-50
2024/01/08 04:35:04;;;;;;;14.10;6.20;;;;;;;-9.28;45.69;101003.94;105541;1253;60553;-49
2024/01/08 04:37:32;;;;;;;11.70;5.80;;;;;;;-9.26;45.02;101002.78;106419;1253;72606;-53
2024/01/08 04:39:59;;;;;;;10.70;4.60;;;;;;;-9.31;45.01;101005.61;105359;1254;70244;-51
2024/01/08 04:42:27;;;;;;;10.30;4.80;;;;;;;-9.35;45.55;101006.92;105436;1258;72664;-49
2024/01/08 04:44:54;;;;;;;14.40;6.50;;;;;;;-9.41;45.38;101011.95;105388;1253;60839;-50
2024/01/08 04:47:22;;;;;;;8.00;3.40;;;;;;;-9.46;45.61;101014.61;105372;1258;60819;-50
2024/01/08 04:49:50;;;;;;;20.90;4.80;;;;;;;-9.43;45.97;101014.48;105900;1258;73859;-50
2024/01/08 04:52:17;;;;;;;14.20;5.90;;;;;;;-9.44;45.20;101014.80;105361;1258;70144;-50
2024/01/08 04:54:45;;;;;;;6.70;2.80;;;;;;;-9.45;45.07;101021.23;105254;1255;71317;-49
2024/01/08 04:57:13;;;;;;;9.30;3.10;;;;;;;-9.47;45.37;101020.71;106088;1253;60854;-50
2024/01/08 04:59:41;;;;;;;8.40;3.40;;;;;;;-9.45;45.48;101026.34;105357;1259;60529;-48
2024/01/08 05:02:10;;;;;;;15.30;5.80;;;;;;;-9.44;45.49;101023.98;105526;1258;73854;-51
2024/01/08 05:04:37;;;;;;;15.90;6.30;;;;;;;-9.43;44.91;101033.34;105450;1259;70277;-50
2024/01/08 05:07:05;;;;;;;13.40;5.40;;;;;;;-9.39;45.12;101039.00;105432;1259;73015;-53
2024/01/08 05:09:33;;;;;;;12.80;4.20;;;;;;;-9.33;44.92;101041.77;105533;1258;60667;-50
2024/01/08 05:12:00;;;;;;;9.20;2.80;;;;;;;-9.29;44.71;101042.17;105258;1258;60426;-50
2024/01/08 05:14:28;;;;;;;12.40;4.10;;;;;;;-9.24;44.84;101044.44;105407;1259;73792;-51
2024/01/08 05:16:56;;;;;;;14.10;6.30;;;;;;;-9.20;44.68;101046.88;105784;1258;69249;-51
2024/01/08 05:19:24;;;;;;;9.10;4.40;;;;;;;-9.31;44.23;101041.98;105888;1257;72680;-48
2024/01/08 05:21:53;;;;;;;9.90;3.90;;;;;;;-9.40;44.44;101051.05;105922;1255;60882;-51
2024/01/08 05:24:20;;;;;;;10.50;3.80;;;;;;;-9.44;44.54;101055.06;105400;1260;60618;-50
2024/01/08 05:26:48;;;;;;;11.90;3.80;;;;;;;-9.43;44.80;101058.14;105925;1253;72579;-50
2024/01/08 05:29:16;;;;;;;14.60;4.40;;;;;;;-9.41;44.97;101062.75;105307;1259;69304;-51
2024/01/08 05:31:45;;;;;;;17.10;5.20;;;;;;;-9.41;44.50;101065.29;106128;1258;73169;-50
2024/01/08 05:34:12;;;;;;;12.10;4.90;;;;;;;-9.42;44.52;101070.04;105323;1256;60834;-49
2024/01/08 05:36:41;;;;;;;12.60;3.80;;;;;;;-9.41;44.45;101077.70;105328;1258;60783;-51
2024/01/08 05:39:09;;;;;;;14.20;6.40;;;;;;;-9.40;44.76;101079.07;105426;1259;72598;-50
2024/01/08 05:41:40;;;;;;;12.10;3.70;;;;;;;-9.44;44.82;101080.89;105306;1260;70053;-49
2024/01/08 05:44:08;;;;;;;10.80;3.50;;;;;;;-9.48;44.94;101080.85;105440;1257;71399;-50
2024/01/08 05:46:41;;;;;;;8.00;3.40;;;;;;;-9.46;45.25;101086.13;105423;1254;60878;-50
2024/01/08 05:49:09;;;;;;;8.20;2.90;;;;;;;-9.39;45.21;101085.54;105447;1258;60401;-54
2024/01/08 05:51:37;;;;;;;11.40;4.50;;;;;;;-9.39;44.89;101091.31;105501;1253;73934;-51
2024/01/08 05:54:05;;;;;;;13.80;6.00;;;;;;;-9.44;44.80;101090.58;105467;1260;70303;-51
2024/01/08 05:56:32;;;;;;;12.00;4.00;;;;;;;-9.54;44.51;101098.42;105607;1258;72362;-52
2024/01/08 05:59:00;;;;;;;11.10;3.90;;;;;;;-9.58;44.83;101102.61;105401;1259;60424;-52
2024/01/08 06:01:28;;;;;;;7.80;3.80;;;;;;;-9.58;45.13;101104.64;105570;1258;311240;-50
2024/01/08 06:05:43;;;;;;;6.90;3.30;;;;;;;-9.95;45.59;101106.84;102310;1293;601133;-50
2024/01/08 06:08:11;;;;;;;12.80;4.60;;;;;;;-9.71;45.15;101111.77;104466;1269;59883;-51
2024/01/08 06:10:39;;;;;;;8.40;3.70;;;;;;;-9.68;45.35;101113.35;104482;1269;59347;-49
2024/01/08 06:13:08;;;;;;;11.40;3.20;;;;;;;-9.71;45.24;101110.07;104507;1266;72429;-50
2024/01/08 06:15:36;;;;;;;10.80;4.20;;;;;;;-9.69;45.44;101113.00;104476;1271;70554;-51
2024/01/08 06:18:04;;;;;;;13.60;4.10;;;;;;;-9.63;44.81;101114.11;104638;1273;72908;-51
2024/01/08 06:20:33;;;;;;;13.70;3.30;;;;;;;-9.60;45.01;101117.70;104656;1270;243887;-51
2024/01/08 06:23:04;;;;;;;8.70;3.20;;;;;;;-9.54;45.12;101119.82;104961;1269;60491;-51
2024/01/08 06:25:32;;;;;;;8.50;4.70;;;;;;;-9.53;44.85;101119.16;104946;1265;72253;-51
2024/01/08 06:28:00;;;;;;;12.10;4.70;;;;;;;-9.55;44.64;101122.02;105416;1255;68928;-52
2024/01/08 06:30:27;;;;;;;9.50;3.80;;;;;;;-9.55;44.52;101128.30;105713;1260;70540;-49
2024/01/08 06:32:55;;;;;;;8.60;3.20;;;;;;;-9.54;44.65;101126.96;105963;1255;60974;-50
2024/01/08 06:35:23;;;;;;;10.40;5.40;;;;;;;-9.53;45.26;101130.70;105356;1257;59655;-51
2024/01/08 06:37:51;;;;;;;7.60;2.80;;;;;;;-9.55;44.93;101127.80;105855;1255;71804;-52
2024/01/08 06:40:19;;;;;;;9.90;3.90;;;;;;;-9.54;44.99;101133.59;105344;1259;68194;-54
2024/01/08 06:42:48;;;;;;;9.10;3.80;;;;;;;-9.52;44.97;101134.97;105288;1259;71664;-53
2024/01/08 06:45:28;;;;;;;9.30;4.10;;;;;;;-9.47;45.15;101136.57;105324;1259;60030;-54
2024/01/08 06:47:56;;;;;;;13.30;4.60;;;;;;;-9.40;45.31;101144.83;105708;1260;60565;-56
2024/01/08 06:50:24;;;;;;;11.70;4.10;;;;;;;-9.37;45.08;101139.59;105330;1258;73006;-56
2024/01/08 06:52:51;;;;;;;15.70;4.40;;;;;;;-9.41;44.64;101139.55;106046;1255;70612;-51
2024/01/08 06:55:19;;;;;;;7.90;3.60;;;;;;;-9.43;44.54;101140.02;105816;1258;71860;-50
2024/01/08 06:57:49;;;;;;;8.90;3.40;;;;;;;-9.45;44.82;101147.48;105307;1257;61410;-51
2024/01/08 07:00:18;;;;;;;11.70;4.10;;;;;;;-9.47;44.55;101141.48;105904;1255;60039;-51
2024/01/08 07:02:45;;;;;;;7.20;2.30;;;;;;;-9.49;44.67;101144.70;105960;1259;72968;-50
2024/01/08 07:05:14;;;;;;;10.70;3.90;;;;;;;-9.45;45.04;101147.46;106158;1256;69951;-51
2024/01/08 07:07:41;;;;;;;9.00;4.00;;;;;;;-9.42;44.93;101150.40;105309;1256;72424;-51
2024/01/08 07:10:09;;;;;;;9.80;3.50;;;;;;;-9.40;44.78;101152.81;106173;1255;60874;-53
2024/01/08 07:12:37;;;;;;;6.10;3.00;;;;;;;-9.38;44.48;101156.06;105445;1259;59573;-51
2024/01/08 07:15:05;;;;;;;8.60;2.80;;;;;;;-9.36;44.65;101157.61;106395;1254;72985;-50
2024/01/08 07:17:33;;;;;;;8.90;3.60;;;;;;;-9.41;44.80;101154.48;105473;1254;69953;-50
2024/01/08 07:20:02;;;;;;;11.20;4.70;;;;;;;-9.46;44.67;101157.48;105465;1257;70109;-50
2024/01/08 07:22:30;;;;;;;7.80;2.50;;;;;;;-9.51;44.74;101159.27;105333;1254;59694;-51
2024/01/08 07:24:57;;;;;;;7.70;2.90;;;;;;;-9.49;44.97;101169.15;105360;1254;60433;-50
2024/01/08 07:27:26;;;;;;;18.50;5.70;;;;;;;-9.48;44.98;101167.98;105318;1259;73500;-50
2024/01/08 07:29:54;;;;;;;8.50;2.90;;;;;;;-9.45;45.07;101174.30;105882;1254;70108;-50
2024/01/08 07:32:21;;;;;;;9.40;4.70;;;;;;;-9.47;44.79;101173.08;105345;1255;72704;-51
2024/01/08 07:34:49;;;;;;;12.50;3.20;;;;;;;-9.47;44.96;101169.35;106079;1255;60871;-52
2024/01/08 07:37:17;;;;;;;9.90;3.40;;;;;;;-9.44;45.34;101173.30;105337;1254;59749;-52
2024/01/08 07:39:44;;;;;;;6.80;3.00;;;;;;;-9.41;45.36;101173.02;105912;1259;71460;-51
2024/01/08 07:42:12;;;;;;;6.10;2.60;;;;;;;-9.36;45.13;101176.48;105299;1259;70641;-51
2024/01/08 07:44:39;;;;;;;12.30;4.30;;;;;;;-9.32;45.11;101173.30;106113;1258;72781;-51
2024/01/08 07:47:07;;;;;;;10.30;3.70;;;;;;;-9.32;44.53;101176.55;105302;1264;60959;-52
2024/01/08 07:49:34;;;;;;;8.10;3.60;;;;;;;-9.31;44.47;101177.40;105337;1259;60622;-51
2024/01/08 07:52:02;;;;;;;10.80;2.70;;;;;;;-9.30;44.73;101179.45;105293;1259;73034;-54
2024/01/08 07:54:30;;;;;;;12.80;4.30;;;;;;;-9.36;44.24;101179.36;105704;1255;70315;-52
2024/01/08 07:56:58;;;;;;;11.00;4.00;;;;;;;-9.44;44.05;101175.34;105371;1258;71363;-52
2024/01/08 07:59:29;;;;;;;7.00;3.30;;;;;;;-9.46;44.35;101183.63;105440;1257;60859;-52
2024/01/08 08:01:57;;;;;;;12.80;5.50;;;;;;;-9.46;44.59;101182.62;105244;1260;60054;-52
2024/01/08 08:04:25;;;;;;;9.50;3.60;;;;;;;-9.38;45.16;101182.92;105781;1257;71806;-52
2024/01/08 08:06:53;;;;;;;8.50;3.70;;;;;;;-9.32;45.23;101185.70;105897;1259;70000;-52
2024/01/08 08:09:20;;;;;;;10.40;5.30;;;;;;;-9.28;45.31;101183.40;105383;1257;72686;-50
2024/01/08 08:11:48;;;;;;;11.10;3.40;;;;;;;-9.29;44.50;101187.45;105271;1254;60820;-50
2024/01/08 08:14:16;;;;;;;7.60;3.20;;;;;;;-9.26;44.29;101193.10;105990;1258;60292;-51
2024/01/08 08:16:44;;;;;;;10.20;4.40;;;;;;;-9.26;44.26;101202.96;105318;1259;73038;-52
2024/01/08 08:19:11;;;;;;;8.00;3.30;;;;;;;-9.27;43.96;101201.93;105384;1258;70135;-52
2024/01/08 08:21:39;;;;;;;8.90;3.50;;;;;;;-9.35;43.96;101200.79;105465;1258;72952;-53
2024/01/08 08:24:07;;;;;;;9.50;4.60;;;;;;;-9.31;44.31;101205.43;105481;1259;59758;-54
2024/01/08 08:26:37;;;;;;;9.10;3.20;;;;;;;-9.23;44.55;101201.13;105322;1260;60051;-53
2024/01/08 08:29:04;;;;;;;9.20;3.80;;;;;;;-9.16;44.53;101203.45;105468;1257;73395;-52
2024/01/08 08:31:32;;;;;;;9.40;2.70;;;;;;;-9.10;44.54;101206.58;105357;1260;70696;-56
2024/01/08 08:34:00;;;;;;;8.90;4.30;;;;;;;-9.01;44.10;101201.61;105352;1259;71625;-55
2024/01/08 08:36:27;;;;;;;12.70;3.90;;;;;;;-8.98;43.90;101200.63;105378;1259;59739;-52
2024/01/08 08:38:56;;;;;;;9.20;3.00;;;;;;;-8.93;43.80;101209.70;105318;1254;60538;-51
2024/01/08 08:41:24;;;;;;;8.10;2.30;;;;;;;-8.92;43.91;101206.82;105766;1260;72999;-52
2024/01/08 08:43:53;;;;;;;10.60;3.80;;;;;;;-8.80;44.41;101204.42;105316;1257;69062;-52
2024/01/08 08:46:21;;;;;;;11.70;4.90;;;;;;;-8.70;43.76;101201.99;105877;1257;71716;-52
2024/01/08 08:48:49;;;;;;;7.40;3.00;;;;;;;-8.70;43.06;101206.08;105292;1258;59675;-52
2024/01/08 08:51:16;;;;;;;7.00;2.60;;;;;;;-8.72;42.83;101203.33;105315;1260;60045;-52
2024/01/08 08:53:44;;;;;;;8.10;3.40;;;;;;;-8.74;43.07;101205.85;105289;1254;73029;-52
2024/01/08 08:56:12;;;;;;;9.70;2.70;;;;;;;-8.69;43.19;101213.05;105472;1260;70272;-56
2024/01/08 08:58:40;;;;;;;7.50;4.10;;;;;;;-8.61;43.36;101207.89;105972;1258;72625;-51
2024/01/08 09:01:08;;;;;;;11.60;3.60;;;;;;;-8.62;42.69;101211.12;105354;1255;61399;-52
2024/01/08 09:03:36;;;;;;;11.60;3.90;;;;;;;-8.62;43.09;101210.27;105477;1259;59998;-52
2024/01/08 09:06:07;;;;;;;8.00;3.50;;;;;;;-8.61;43.05;101202.29;105487;1257;75065;-53
2024/01/08 09:08:35;;;;;;;9.90;4.40;;;;;;;-8.60;43.26;101203.49;105435;1254;68661;-51
2024/01/08 09:11:03;;;;;;;7.40;3.30;;;;;;;-8.57;43.53;101208.95;105464;1258;72899;-52
2024/01/08 09:13:32;;;;;;;9.30;2.90;;;;;;;-8.49;43.23;101202.41;105244;1259;60826;-52
2024/01/08 09:16:00;;;;;;;8.30;3.50;;;;;;;-8.42;43.24;101205.88;105631;1258;61835;-51
2024/01/08 09:18:27;;;;;;;6.90;2.90;;;;;;;-8.36;42.76;101209.50;105536;1260;73016;-53
2024/01/08 09:20:55;;;;;;;7.80;2.80;;;;;;;-8.35;42.63;101206.95;105265;1260;70278;-54
2024/01/08 09:23:23;;;;;;;8.70;4.70;;;;;;;-8.28;42.91;101210.44;105323;1254;72621;-53
2024/01/08 09:25:50;;;;;;;10.60;3.00;;;;;;;-8.23;42.82;101204.87;105939;1258;59907;-54
2024/01/08 09:28:18;;;;;;;6.80;3.20;;;;;;;-8.22;42.86;101197.23;105424;1258;62607;-54
2024/01/08 09:30:47;;;;;;;7.10;3.00;;;;;;;-8.16;42.84;101200.52;105350;1260;72958;-54
2024/01/08 09:33:15;;;;;;;10.50;3.90;;;;;;;-8.16;42.59;101197.80;105910;1258;69318;-54
2024/01/08 09:35:43;;;;;;;8.10;3.10;;;;;;;-8.20;42.62;101197.75;105297;1260;72614;-53
2024/01/08 09:38:11;;;;;;;6.00;2.60;;;;;;;-8.27;43.10;101199.73;105315;1260;59811;-54
2024/01/08 09:40:38;;;;;;;7.80;3.20;;;;;;;-8.18;43.34;101201.16;105426;1258;60089;-52
2024/01/08 09:43:09;;;;;;;7.60;3.40;;;;;;;-8.13;43.26;101203.61;105465;1257;72928;-53
2024/01/08 09:45:40;;;;;;;10.60;5.00;;;;;;;-8.11;43.68;101197.16;105468;1266;68845;-52
2024/01/08 09:48:08;;;;;;;8.50;3.90;;;;;;;-8.06;43.48;101200.42;105391;1259;71382;-52
2024/01/08 09:50:37;;;;;;;8.00;3.30;;;;;;;-8.04;43.06;101197.23;105486;1258;61192;-52
2024/01/08 09:53:05;;;;;;;9.00;3.90;;;;;;;-8.02;43.46;101201.83;105432;1254;61134;-54
2024/01/08 09:55:33;;;;;;;10.50;3.90;;;;;;;-7.93;43.66;101195.95;105641;1254;73072;-54
2024/01/08 09:58:01;;;;;;;10.10;5.00;;;;;;;-7.84;43.19;101189.90;105320;1255;72443;-54
2024/01/08 10:00:28;;;;;;;10.50;3.70;;;;;;;-7.82;43.23;101190.77;105298;1261;71851;-54
2024/01/08 10:02:57;;;;;;;6.50;3.00;;;;;;;-7.78;43.41;101191.50;105812;1259;61648;-57
2024/01/08 10:05:28;;;;;;;8.50;2.50;;;;;;;-7.75;43.58;101185.55;105792;1254;59848;-54
2024/01/08 10:08:00;;;;;;;9.10;2.80;;;;;;;-7.70;43.60;101177.92;105787;1253;74001;-54
2024/01/08 10:10:29;;;;;;;4.50;1.80;;;;;;;-7.66;43.45;101182.73;106530;1260;71418;-54
2024/01/08 10:12:57;;;;;;;10.30;3.00;;;;;;;-7.60;43.46;101182.43;105312;1261;72832;-54
2024/01/08 10:15:25;;;;;;;11.60;5.50;;;;;;;-7.57;43.57;101180.59;105906;1259;62710;-52
2024/01/08 10:17:55;;;;;;;20.30;5.20;;;;;;;-7.52;43.55;101181.47;105717;1255;60450;-51
2024/01/08 10:20:23;;;;;;;6.20;2.60;;;;;;;-7.54;43.16;101176.34;105883;1256;73914;-52
2024/01/08 10:23:08;;;;;;;12.20;4.60;;;;;;;-7.59;43.05;101174.93;105368;1257;69217;-54
2024/01/08 10:25:37;;;;;;;9.90;3.10;;;;;;;-7.61;43.25;101176.81;105377;1261;74832;-51
2024/01/08 10:28:08;;;;;;;11.10;4.20;;;;;;;-7.63;43.14;101175.42;105412;1255;61852;-52
2024/01/08 10:30:36;;;;;;;7.10;3.60;;;;;;;-7.59;43.27;101173.40;105329;1254;60335;-55
2024/01/08 10:33:04;;;;;;;8.90;4.00;;;;;;;-7.59;43.77;101171.36;105421;1256;72624;-53
2024/01/08 10:35:32;;;;;;;8.90;3.60;;;;;;;-7.56;43.60;101173.77;105316;1259;70711;-53
2024/01/08 10:38:00;;;;;;;9.60;3.50;;;;;;;-7.50;43.64;101175.69;105493;1260;71790;-52
2024/01/08 10:40:31;;;;;;;8.20;3.10;;;;;;;-7.53;43.21;101176.00;105347;1260;61287;-54
2024/01/08 10:42:59;;;;;;;10.50;4.50;;;;;;;-7.54;43.21;101183.84;105553;1254;60568;-52
2024/01/08 10:45:26;;;;;;;6.90;2.80;;;;;;;-7.55;43.31;101177.34;105320;1260;73746;-53
2024/01/08 10:48:10;;;;;;;10.60;4.50;;;;;;;-7.57;43.62;101180.74;105753;1258;69485;-53
2024/01/08 10:50:38;;;;;;;7.60;3.70;;;;;;;-7.57;43.89;101176.33;105291;1260;71967;-53
2024/01/08 10:53:08;;;;;;;8.70;3.60;;;;;;;-7.60;44.20;101180.04;105374;1259;60751;-55
2024/01/08 10:55:36;;;;;;;12.60;4.70;;;;;;;-7.64;43.79;101180.53;105532;1253;60633;-53
2024/01/08 10:58:07;;;;;;;9.80;3.60;;;;;;;-7.63;44.17;101179.16;105361;1264;73090;-53
2024/01/08 11:00:35;;;;;;;9.70;4.30;;;;;;;-7.64;43.70;101181.89;105478;1257;70126;-53
2024/01/08 11:03:03;;;;;;;7.70;3.00;;;;;;;-7.67;44.06;101179.83;105469;1257;73016;-55
2024/01/08 11:05:34;;;;;;;10.80;3.90;;;;;;;-7.62;44.03;101181.05;105573;1257;61602;-54
2024/01/08 11:08:02;;;;;;;10.00;4.10;;;;;;;-7.63;44.24;101177.30;105225;1261;61456;-53
2024/01/08 11:10:30;;;;;;;9.40;5.00;;;;;;;-7.66;43.93;101169.44;105316;1261;72952;-52
2024/01/08 11:12:57;;;;;;;5.40;2.80;;;;;;;-7.79;43.94;101171.89;105474;1259;72533;-54
2024/01/08 11:15:26;;;;;;;8.50;4.30;;;;;;;-7.85;44.23;101170.66;105463;1258;71757;-52
2024/01/08 11:17:57;;;;;;;7.80;3.10;;;;;;;-7.92;44.30;101183.36;105883;1257;63391;-52